aviador You're here:

KART Decoded Metar

WATERTOWN in NY, USA
Report Time2017-07-21 03:56:00
UTC Time2017-07-21 04:31:29
Flight Rules vfr VFR
Wind160° at 04 kt
W.Decomp.*RWY 10: 1.2 kt HW 3.8 kt RCW
RWY 25: 0.8 kt HW 3.9 kt LCW
W.Rank160° ranks 15
Current wind is below 160° avg. (6.9)
Visibility9999 m
Phenomena:N/A
Clouds:N/A
CeilingNone
Temp17°C (ISA +3)
Dew Point17°C (100% RH)
QNH1012 hPa
Density Alt932 ft
Elevation328 ft
Report Wrong Elevation
Raw Report
KART 210356Z AUTO 16004KT 8SM CLR 17/17 A2989 RMK AO2 SLP116
T01720167=

Extra information for KART:More info

Metar Taf Metar & Taf Last 4 Metars F.Rules Stats Wind Profile Meteogram Temp Stats Airport Information Weather charts Add Link Nearby VenuesMetar ALERT Operation Metar Decoded Social comments

AIRNAV info for KART